| time (UTC) | temp C | wind direction | speed KPH | gust KPH | rain 1hr cm | rain 24hr cm | rain mn cm | humidity % | barometer mb |
| 20260504035514 | 10 | 126 | 3.2 | 3.2 | 0.00 | 0.00 | 0.00 | 72 | 1014.5 |
| 20260504035010 | 10 | 86 | 3.2 | 4.8 | 0.00 | 0.00 | 0.00 | 72 | 1014.8 |
| 20260504034508 | 10 | 116 | 1.6 | 3.2 | 0.00 | 0.00 | 0.00 | 68 | 1015.0 |
| 20260504034005 | 10 | 110 | 3.2 | 4.8 | 0.00 | 0.00 | 0.00 | 72 | 1015.0 |
| 20260504033503 | 10 | 112 | 1.6 | 4.8 | 0.00 | 0.00 | 0.00 | 75 | 1015.0 |
| 20260504033000 | 10 | 108 | 1.6 | 1.6 | 0.00 | 0.00 | 0.00 | 74 | 1015.2 |
| 20260504032457 | 9 | 113 | 0.0 | 1.6 | 0.00 | 0.00 | 0.00 | 76 | 1015.2 |
| 20260504031953 | 10 | 117 | 0.0 | 1.6 | 0.00 | 0.00 | 0.00 | 78 | 1014.9 |
| 20260504031450 | 10 | 117 | 0.0 | 0.0 | 0.00 | 0.00 | 0.00 | 76 | 1015.3 |
| 20260504030947 | 10 | 117 | 0.0 | 0.0 | 0.00 | 0.00 | 0.00 | 73 | 1015.3 |
| 20260504030444 | 10 | 115 | 0.0 | 0.0 | 0.00 | 0.00 | 0.00 | 72 | 1014.9 |
| 20260504025940 | 9 | 114 | 0.0 | 0.0 | 0.00 | 0.00 | 0.00 | 76 | 1014.9 |
| 20260504025437 | 9 | 113 | 0.0 | 1.6 | 0.00 | 0.00 | 0.00 | 76 | 1015.0 |
| 20260504024934 | 8 | 116 | 0.0 | 1.6 | 0.00 | 0.00 | 0.00 | 81 | 1015.2 |
| 20260504024431 | 7 | 110 | 1.6 | 1.6 | 0.00 | 0.00 | 0.00 | 88 | 1015.2 |
| 20260504023928 | 7 | 112 | 0.0 | 0.0 | 0.00 | 0.00 | 0.00 | 90 | 1015.3 |
| 20260504023424 | 7 | 112 | 0.0 | 0.0 | 0.00 | 0.00 | 0.00 | 90 | 1015.0 |
| 20260504022920 | 7 | 119 | 0.0 | 0.0 | 0.00 | 0.00 | 0.00 | 89 | 1015.4 |
| 20260504022417 | 7 | 117 | 0.0 | 0.0 | 0.00 | 0.00 | 0.00 | 88 | 1015.4 |
| 20260504021914 | 7 | 119 | 0.0 | 0.0 | 0.00 | 0.00 | 0.00 | 88 | 1015.3 |
| 20260504021412 | 7 | 116 | 0.0 | 0.0 | 0.00 | 0.00 | 0.00 | 87 | 1015.6 |
| 20260504020909 | 7 | 116 | 0.0 | 0.0 | 0.00 | 0.00 | 0.00 | 86 | 1015.4 |
| 20260504020405 | 7 | 116 | 0.0 | 0.0 | 0.00 | 0.00 | 0.00 | 86 | 1015.6 |
| 20260504015901 | 8 | 116 | 0.0 | 0.0 | 0.00 | 0.00 | 0.00 | 84 | 1015.7 |
| 20260504015357 | 8 | 117 | 0.0 | 0.0 | 0.00 | 0.00 | 0.00 | 83 | 1015.3 |
| 20260504014853 | 8 | 117 | 0.0 | 0.0 | 0.00 | 0.00 | 0.00 | 80 | 1015.4 |
| 20260504014349 | 8 | 115 | 1.6 | 1.6 | 0.00 | 0.00 | 0.00 | 78 | 1015.4 |
| 20260504013847 | 9 | 115 | 0.0 | 0.0 | 0.00 | 0.00 | 0.00 | 77 | 1015.2 |
| 20260504013345 | 9 | 115 | 0.0 | 0.0 | 0.00 | 0.00 | 0.00 | 78 | 1015.0 |
| 20260504012841 | 10 | 115 | 0.0 | 0.0 | 0.00 | 0.00 | 0.00 | 78 | 1015.0 |
| 20260504012339 | 10 | 112 | 0.0 | 1.6 | 0.00 | 0.00 | 0.00 | 76 | 1014.9 |
| 20260504011836 | 10 | 116 | 0.0 | 0.0 | 0.00 | 0.00 | 0.00 | 72 | 1014.9 |
| 20260504011332 | 10 | 115 | 0.0 | 0.0 | 0.00 | 0.00 | 0.00 | 72 | 1014.7 |
| 20260504010828 | 11 | 115 | 0.0 | 0.0 | 0.00 | 0.00 | 0.00 | 68 | 1014.6 |
| 20260504010324 | 11 | 116 | 0.0 | 0.0 | 0.00 | 0.00 | 0.00 | 61 | 1014.7 |
| 20260504005821 | 11 | 116 | 0.0 | 0.0 | 0.00 | 0.00 | 0.00 | 61 | 1014.6 |
| 20260504005318 | 11 | 115 | 0.0 | 0.0 | 0.00 | 0.00 | 0.00 | 67 | 1014.4 |
| 20260504004816 | 12 | 129 | 0.0 | 1.6 | 0.00 | 0.00 | 0.00 | 59 | 1014.7 |
| 20260504004313 | 12 | 120 | 1.6 | 3.2 | 0.00 | 0.00 | 0.00 | 54 | 1014.5 |
| 20260504003809 | 13 | 109 | 0.0 | 3.2 | 0.00 | 0.00 | 0.00 | 58 | 1014.3 |
| 20260504003307 | 13 | 126 | 1.6 | 3.2 | 0.00 | 0.00 | 0.00 | 53 | 1014.5 |
| 20260504002802 | 13 | 118 | 1.6 | 4.8 | 0.00 | 0.00 | 0.00 | 54 | 1014.4 |
| 20260504002300 | 13 | 133 | 1.6 | 3.2 | 0.00 | 0.00 | 0.00 | 52 | 1014.4 |
| 20260504001757 | 14 | 142 | 6.4 | 6.4 | 0.00 | 0.00 | 0.00 | 50 | 1014.4 |
| 20260504001254 | 14 | 138 | 1.6 | 4.8 | 0.00 | 0.00 | 0.00 | 50 | 1014.4 |
| 20260504000751 | 15 | 124 | 3.2 | 9.7 | 0.00 | 0.00 | 0.00 | 49 | 1014.2 |
| 20260504000248 | 15 | 116 | 3.2 | 11.3 | 0.00 | 0.00 | 0.00 | 50 | 1014.4 |
| 20260503235746 | 15 | 107 | 1.6 | 4.8 | 0.00 | 0.00 | 0.00 | 49 | 1014.4 |
| 20260503235243 | 15 | 118 | 3.2 | 3.2 | 0.00 | 0.00 | 0.00 | 48 | 1014.5 |
| 20260503234741 | 15 | 108 | 4.8 | 11.3 | 0.00 | 0.00 | 0.00 | 46 | 1014.5 |
| 20260503234239 | 15 | 113 | 6.4 | 9.7 | 0.00 | 0.00 | 0.00 | 45 | 1014.5 |
| 20260503233735 | 15 | 118 | 6.4 | 12.9 | 0.00 | 0.00 | 0.00 | 45 | 1014.2 |
| 20260503233231 | 15 | 124 | 3.2 | 4.8 | 0.00 | 0.00 | 0.00 | 47 | 1014.7 |
| 20260503232728 | 15 | 118 | 3.2 | 12.9 | 0.00 | 0.00 | 0.00 | 44 | 1014.6 |
| 20260503232226 | 16 | 155 | 8.0 | 11.3 | 0.00 | 0.00 | 0.00 | 44 | 1014.7 |
| 20260503231724 | 16 | 116 | 9.7 | 11.3 | 0.00 | 0.00 | 0.00 | 43 | 1014.9 |
| 20260503231220 | 16 | 160 | 3.2 | 9.7 | 0.00 | 0.00 | 0.00 | 42 | 1014.8 |
| 20260503230716 | 16 | 141 | 1.6 | 4.8 | 0.00 | 0.00 | 0.00 | 43 | 1015.2 |
| 20260503230214 | 16 | 237 | 3.2 | 4.8 | 0.00 | 0.00 | 0.00 | 44 | 1014.9 |
| 20260503225711 | 16 | 130 | 0.0 | 6.4 | 0.00 | 0.00 | 0.00 | 45 | 1015.2 |
| 20260503225211 | 16 | 129 | 4.8 | 11.3 | 0.00 | 0.00 | 0.00 | 43 | 1015.4 |
| 20260503224709 | 16 | 142 | 3.2 | 11.3 | 0.00 | 0.00 | 0.00 | 45 | 1015.4 |
| 20260503224207 | 16 | 127 | 3.2 | 11.3 | 0.00 | 0.00 | 0.00 | 43 | 1015.6 |
| 20260503223704 | 17 | 161 | 3.2 | 12.9 | 0.00 | 0.00 | 0.00 | 43 | 1015.5 |
| 20260503223201 | 17 | 226 | 6.4 | 12.9 | 0.00 | 0.00 | 0.00 | 42 | 1015.3 |
| 20260503222657 | 17 | 153 | 4.8 | 9.7 | 0.00 | 0.00 | 0.00 | 40 | 1015.4 |
| 20260503222155 | 17 | 169 | 3.2 | 11.3 | 0.00 | 0.00 | 0.00 | 42 | 1015.4 |
| 20260503221654 | 16 | 200 | 8.0 | 16.1 | 0.00 | 0.00 | 0.00 | 40 | 1015.6 |
| 20260503221150 | 17 | 221 | 12.9 | 16.1 | 0.00 | 0.00 | 0.00 | 39 | 1015.7 |
| 20260503220647 | 17 | 155 | 3.2 | 6.4 | 0.00 | 0.00 | 0.00 | 42 | 1015.9 |
| 20260503220143 | 17 | 146 | 6.4 | 9.7 | 0.00 | 0.00 | 0.00 | 40 | 1015.6 |
| 20260503215641 | 17 | 190 | 4.8 | 12.9 | 0.00 | 0.00 | 0.00 | 41 | 1015.6 |
| 20260503215137 | 17 | 173 | 4.8 | 14.5 | 0.00 | 0.00 | 0.00 | 42 | 1016.0 |
| 20260503214636 | 17 | 151 | 3.2 | 11.3 | 0.00 | 0.00 | 0.00 | 41 | 1016.2 |
| 20260503214132 | 17 | 146 | 3.2 | 14.5 | 0.00 | 0.00 | 0.00 | 41 | 1016.0 |
| 20260503213626 | 17 | 141 | 6.4 | 14.5 | 0.00 | 0.00 | 0.00 | 40 | 1016.2 |
| 20260503213122 | 18 | 106 | 1.6 | 6.4 | 0.00 | 0.00 | 0.00 | 42 | 1015.9 |
| 20260503212619 | 17 | 130 | 3.2 | 16.1 | 0.00 | 0.00 | 0.00 | 39 | 1015.9 |
| 20260503212116 | 17 | 146 | 6.4 | 14.5 | 0.00 | 0.00 | 0.00 | 41 | 1015.9 |
| 20260503211609 | 17 | 210 | 6.4 | 14.5 | 0.00 | 0.00 | 0.00 | 40 | 1016.0 |
| 20260503211104 | 16 | 128 | 8.0 | 14.5 | 0.00 | 0.00 | 0.00 | 40 | 1016.5 |
| 20260503210601 | 16 | 162 | 9.7 | 12.9 | 0.00 | 0.00 | 0.00 | 40 | 1016.4 |
| 20260503210056 | 16 | 94 | 9.7 | 14.5 | 0.00 | 0.00 | 0.00 | 40 | 1016.4 |
| 20260503205553 | 16 | 209 | 6.4 | 17.7 | 0.00 | 0.00 | 0.00 | 39 | 1016.4 |
| 20260503205049 | 16 | 129 | 3.2 | 12.9 | 0.00 | 0.00 | 0.00 | 40 | 1016.5 |
| 20260503204546 | 16 | 181 | 11.3 | 29.0 | 0.00 | 0.00 | 0.00 | 42 | 1016.5 |
| 20260503204043 | 16 | 86 | 4.8 | 9.7 | 0.00 | 0.00 | 0.00 | 41 | 1016.6 |
| 20260503203535 | 17 | 135 | 11.3 | 22.5 | 0.00 | 0.00 | 0.00 | 38 | 1016.7 |
| 20260503203032 | 16 | 188 | 12.9 | 16.1 | 0.00 | 0.00 | 0.00 | 39 | 1016.6 |
| 20260503202530 | 16 | 104 | 3.2 | 9.7 | 0.00 | 0.00 | 0.00 | 43 | 1016.8 |
| 20260503202027 | 16 | 86 | 12.9 | 16.1 | 0.00 | 0.00 | 0.00 | 39 | 1016.7 |
| 20260503201520 | 17 | 117 | 11.3 | 14.5 | 0.00 | 0.00 | 0.00 | 40 | 1017.1 |
| 20260503201017 | 16 | 159 | 3.2 | 12.9 | 0.00 | 0.00 | 0.00 | 44 | 1017.4 |
| 20260503200513 | 16 | 144 | 11.3 | 20.9 | 0.00 | 0.00 | 0.00 | 41 | 1017.4 |
| 20260503200009 | 17 | 175 | 6.4 | 12.9 | 0.00 | 0.00 | 0.00 | 45 | 1017.6 |
| 20260503195506 | 16 | 184 | 3.2 | 14.5 | 0.00 | 0.00 | 0.00 | 41 | 1017.6 |
| 20260503195002 | 16 | 119 | 14.5 | 17.7 | 0.00 | 0.00 | 0.00 | 39 | 1017.6 |
| 20260503194500 | 16 | 100 | 6.4 | 12.9 | 0.00 | 0.00 | 0.00 | 43 | 1017.8 |
| 20260503193955 | 16 | 108 | 4.8 | 16.1 | 0.00 | 0.00 | 0.00 | 44 | 1017.9 |
| 20260503193451 | 15 | 152 | 6.4 | 12.9 | 0.00 | 0.00 | 0.00 | 42 | 1018.3 |
| 20260503192947 | 16 | 134 | 8.0 | 16.1 | 0.00 | 0.00 | 0.00 | 45 | 1018.1 |
| 20260503192444 | 15 | 157 | 3.2 | 16.1 | 0.00 | 0.00 | 0.00 | 41 | 1018.4 |
| 20260503191939 | 16 | 142 | 3.2 | 12.9 | 0.00 | 0.00 | 0.00 | 44 | 1018.2 |
| 20260503191437 | 15 | 215 | 11.3 | 16.1 | 0.00 | 0.00 | 0.00 | 41 | 1018.5 |
| 20260503190933 | 15 | 77 | 6.4 | 11.3 | 0.00 | 0.00 | 0.00 | 42 | 1018.4 |
| 20260503190431 | 15 | 137 | 4.8 | 14.5 | 0.00 | 0.00 | 0.00 | 44 | 1018.6 |
| 20260503185927 | 16 | 188 | 9.7 | 11.3 | 0.00 | 0.00 | 0.00 | 39 | 1018.6 |
| 20260503185424 | 15 | 101 | 3.2 | 6.4 | 0.00 | 0.00 | 0.00 | 48 | 1018.5 |
| 20260503184923 | 16 | 123 | 9.7 | 12.9 | 0.00 | 0.00 | 0.00 | 40 | 1018.9 |
| 20260503184420 | 15 | 99 | 8.0 | 14.5 | 0.00 | 0.00 | 0.00 | 41 | 1018.6 |
| 20260503183916 | 15 | 118 | 3.2 | 11.3 | 0.00 | 0.00 | 0.00 | 43 | 1018.8 |
| 20260503183413 | 15 | 115 | 8.0 | 12.9 | 0.00 | 0.00 | 0.00 | 43 | 1018.9 |
| 20260503182910 | 15 | 85 | 8.0 | 14.5 | 0.00 | 0.00 | 0.00 | 44 | 1019.0 |
| 20260503182409 | 15 | 100 | 9.7 | 20.9 | 0.00 | 0.00 | 0.00 | 40 | 1019.0 |
| 20260503181906 | 16 | 121 | 3.2 | 12.9 | 0.00 | 0.00 | 0.00 | 41 | 1019.2 |
| 20260503181403 | 15 | 109 | 6.4 | 6.4 | 0.00 | 0.00 | 0.00 | 42 | 1019.1 |
| 20260503180859 | 15 | 96 | 6.4 | 12.9 | 0.00 | 0.00 | 0.00 | 42 | 1019.1 |
| 20260503180357 | 14 | 99 | 3.2 | 16.1 | 0.00 | 0.00 | 0.00 | 41 | 1019.2 |
| 20260503175853 | 15 | 123 | 1.6 | 9.7 | 0.00 | 0.00 | 0.00 | 44 | 1019.4 |
| 20260503175352 | 15 | 115 | 0.0 | 9.7 | 0.00 | 0.00 | 0.00 | 42 | 1019.4 |
| 20260503174847 | 15 | 169 | 11.3 | 17.7 | 0.00 | 0.00 | 0.00 | 39 | 1019.7 |
| 20260503174345 | 15 | 136 | 4.8 | 12.9 | 0.00 | 0.00 | 0.00 | 45 | 1019.4 |
| 20260503173845 | 15 | 86 | 4.8 | 16.1 | 0.00 | 0.00 | 0.00 | 45 | 1019.7 |
| 20260503173342 | 15 | 79 | 6.4 | 9.7 | 0.00 | 0.00 | 0.00 | 49 | 1020.0 |
| 20260503172838 | 15 | 92 | 4.8 | 9.7 | 0.00 | 0.00 | 0.00 | 41 | 1020.1 |
| 20260503172336 | 15 | 142 | 3.2 | 11.3 | 0.00 | 0.00 | 0.00 | 41 | 1019.9 |
| 20260503171832 | 14 | 137 | 6.4 | 9.7 | 0.00 | 0.00 | 0.00 | 45 | 1019.9 |
| 20260503171329 | 14 | 141 | 6.4 | 12.9 | 0.00 | 0.00 | 0.00 | 41 | 1020.2 |
| 20260503170826 | 15 | 113 | 1.6 | 6.4 | 0.00 | 0.00 | 0.00 | 44 | 1020.0 |
| 20260503170323 | 14 | 318 | 0.0 | 3.2 | 0.00 | 0.00 | 0.00 | 47 | 1020.3 |
| 20260503150715 | 13 | 206 | 4.8 | 9.7 | 0.00 | 0.00 | 0.00 | 46 | 1021.3 |
| 20260503150211 | 13 | 133 | 6.4 | 6.4 | 0.00 | 0.00 | 0.00 | 47 | 1021.3 |
| 20260503140136 | 10 | 133 | 3.2 | 6.4 | 0.00 | 0.00 | 0.00 | 57 | 1021.5 |
| 20260503131105 | 8 | 142 | 1.6 | 9.7 | 0.00 | 0.00 | 0.00 | 71 | 1021.3 |
| 20260503130603 | 8 | 135 | 1.6 | 3.2 | 0.00 | 0.00 | 0.00 | 78 | 1021.3 |
| 20260503110453 | -1 | 120 | 0.0 | 0.0 | 0.00 | 0.00 | 0.00 | 99 | 1020.5 |
| 20260503090338 | -1 | 120 | 0.0 | 0.0 | 0.00 | 0.00 | 0.00 | 99 | 1020.1 |
| 20260503081306 | -1 | 120 | 0.0 | 0.0 | 0.00 | 0.00 | 0.00 | 99 | 1019.9 |
| 20260503080802 | -1 | 120 | 0.0 | 0.0 | 0.00 | 0.00 | 0.00 | 99 | 1019.7 |
| 20260503080259 | -1 | 121 | 0.0 | 0.0 | 0.00 | 0.00 | 0.00 | 99 | 1019.8 |
| 20260503072736 | 0 | 120 | 0.0 | 0.0 | 0.00 | 0.00 | 0.00 | 99 | 1019.7 |
| 20260503072233 | 0 | 120 | 0.0 | 0.0 | 0.00 | 0.00 | 0.00 | 99 | 1019.6 |
| 20260503071729 | 0 | 120 | 0.0 | 0.0 | 0.00 | 0.00 | 0.00 | 99 | 1019.6 |
| 20260503071226 | 0 | 120 | 0.0 | 0.0 | 0.00 | 0.00 | 0.00 | 99 | 1019.8 |
| 20260503070722 | 0 | 120 | 0.0 | 0.0 | 0.00 | 0.00 | 0.00 | 99 | 1019.6 |
| 20260503070221 | 0 | 120 | 0.0 | 0.0 | 0.00 | 0.00 | 0.00 | 99 | 1019.7 |
| 20260503060145 | 0 | 120 | 0.0 | 0.0 | 0.00 | 0.00 | 0.00 | 99 | 1020.0 |
| 20260503054632 | 1 | 120 | 0.0 | 0.0 | 0.00 | 0.00 | 0.00 | 99 | 1019.6 |
| 20260503054129 | 1 | 120 | 0.0 | 0.0 | 0.00 | 0.00 | 0.00 | 99 | 1019.8 |
| 20260503053627 | 1 | 120 | 0.0 | 0.0 | 0.00 | 0.00 | 0.00 | 99 | 1019.6 |
| 20260503053125 | 1 | 120 | 0.0 | 0.0 | 0.00 | 0.00 | 0.00 | 99 | 1019.9 |
| 20260503052621 | 1 | 120 | 0.0 | 0.0 | 0.00 | 0.00 | 0.00 | 99 | 1019.9 |
| 20260503052118 | 1 | 120 | 0.0 | 0.0 | 0.00 | 0.00 | 0.00 | 99 | 1019.9 |
| 20260503051613 | 1 | 120 | 0.0 | 0.0 | 0.00 | 0.00 | 0.00 | 99 | 1019.9 |
| 20260503051111 | 1 | 120 | 0.0 | 0.0 | 0.00 | 0.00 | 0.00 | 99 | 1019.8 |
| 20260503050607 | 2 | 121 | 0.0 | 0.0 | 0.00 | 0.00 | 0.00 | 98 | 1020.0 |
| 20260503050104 | 2 | 121 | 0.0 | 0.0 | 0.00 | 0.00 | 0.00 | 98 | 1019.9 |
| 20260503045601 | 2 | 121 | 0.0 | 0.0 | 0.00 | 0.00 | 0.00 | 97 | 1019.9 |
| 20260503045059 | 2 | 121 | 0.0 | 0.0 | 0.00 | 0.00 | 0.00 | 96 | 1019.9 |
| 20260503044555 | 2 | 120 | 0.0 | 0.0 | 0.00 | 0.00 | 0.00 | 94 | 1019.8 |
| 20260503044053 | 2 | 121 | 0.0 | 0.0 | 0.00 | 0.00 | 0.00 | 93 | 1019.9 |
| 20260503043549 | 2 | 120 | 0.0 | 0.0 | 0.00 | 0.00 | 0.00 | 92 | 1019.9 |
| 20260503043046 | 3 | 120 | 0.0 | 0.0 | 0.00 | 0.00 | 0.00 | 91 | 1019.8 |
| 20260503042542 | 3 | 121 | 0.0 | 0.0 | 0.00 | 0.00 | 0.00 | 92 | 1019.8 |
| 20260503042038 | 3 | 121 | 0.0 | 0.0 | 0.00 | 0.00 | 0.00 | 91 | 1019.7 |
| 20260503041535 | 3 | 111 | 0.0 | 1.6 | 0.00 | 0.00 | 0.00 | 91 | 1019.7 |
| 20260503041033 | 3 | 117 | 0.0 | 0.0 | 0.00 | 0.00 | 0.00 | 91 | 1019.8 |
| 20260503040530 | 3 | 121 | 0.0 | 0.0 | 0.00 | 0.00 | 0.00 | 91 | 1019.8 |
| 20260503040028 | 3 | 120 | 0.0 | 0.0 | 0.00 | 0.00 | 0.00 | 93 | 1019.6 |